Patos — WDF6110 — position and weather

sailwx.info

Track history (hours):
 
Tides and Currents Weather Stations Pressure Air Temp Water Temp Dewpoint Dewpoint Depression Visibility Wind Speed Wind Dir Waves Ship Positions

Patos

Owner: Demelza Charters LLP, Bellingham, WA. More information available from US FCC via Universal Licensing System and Coast Guard Vessel Documentation Center.

Last reported at 2015-Aug-26 14:15 UTC. Time now 2015-Aug-30 07:54 UTC.
Position N 49°08' W 123°41'.

Length 16 m.

Type: Pleasure craft. MMSI: 367470750.

Date/timePositionNaut miles runAvg speedWind from/ knotsBaromVisibWave heightAir tempDewpointWater temp
2015-Aug-26 14:15N 49°08' W 123°41'1 0.3
2015-Aug-26 09:31N 49°09' W 123°42'0 0.0
2015-Aug-26 07:25N 49°09' W 123°42'0 0.0
2015-Aug-26 06:25N 49°09' W 123°42'0 0.0
2015-Aug-26 05:25N 49°09' W 123°42'2 0.8
2015-Aug-26 02:33N 49°11' W 123°43'8 8.2
2015-Aug-26 01:33N 49°18' W 123°50'8 8.1
2015-Aug-26 00:33N 49°25' W 123°54'7 6.9
2015-Aug-25 23:33N 49°32' W 123°58'0 0.1
2015-Aug-25 22:33N 49°32' W 123°58'0 0.0
2015-Aug-25 21:33N 49°32' W 123°58'1 1.1
2015-Aug-25 20:30N 49°32' W 123°60'8 7.5
2015-Aug-25 19:26N 49°38' W 124°09'6 7.4
2015-Aug-25 18:33N 49°41' W 124°17'7 7.4
2015-Aug-25 17:33N 49°46' W 124°26'  
2015-Aug-17 21:03N 49°48' W 124°32'4 7.6
2015-Aug-17 20:30N 49°46' W 124°26'7 7.5
2015-Aug-17 19:33N 49°42' W 124°17'7 7.2
2015-Aug-17 18:32N 49°37' W 124°08'7 7.2
2015-Aug-17 17:33N 49°32' W 124°00'8 7.6
2015-Aug-17 16:34N 49°26' W 123°54'8 7.7
2015-Aug-17 15:32N 49°19' W 123°48'7 7.4
2015-Aug-17 14:32N 49°13' W 123°43'4 3.8
2015-Aug-17 13:33N 49°09' W 123°42'0 0.0
2015-Aug-17 12:12N 49°09' W 123°42'0 0.0
2015-Aug-17 05:27N 49°09' W 123°42'0 0.0
2015-Aug-17 04:30N 49°09' W 123°42'0 0.0
2015-Aug-17 03:30N 49°09' W 123°42'0 0.0
2015-Aug-17 02:30N 49°09' W 123°42'0 0.0
2015-Aug-17 01:30N 49°09' W 123°42'0 0.0
2015-Aug-16 23:33N 49°09' W 123°42'  
Track history (hours):
 
Tides and Currents Weather Stations Pressure Air Temp Water Temp Dewpoint Dewpoint Depression Visibility Wind Speed Wind Dir Waves Ship Positions

Patos

Owner: Demelza Charters LLP, Bellingham, WA. More information available from US FCC via Universal Licensing System and Coast Guard Vessel Documentation Center.

Last reported at 2015-Aug-26 14:15 UTC. Time now 2015-Aug-30 07:54 UTC.
Position N 49°08' W 123°41'.

Length 16 m.

Type: Pleasure craft. MMSI: 367470750.

Date/timePositionNaut miles runAvg speedWind from/ knotsBaromVisibWave heightAir tempDewpointWater temp
2015-Aug-26 14:15N 49°08' W 123°41'1 0.3
2015-Aug-26 09:31N 49°09' W 123°42'0 0.0
2015-Aug-26 07:25N 49°09' W 123°42'0 0.0
2015-Aug-26 06:25N 49°09' W 123°42'0 0.0
2015-Aug-26 05:25N 49°09' W 123°42'2 0.8
2015-Aug-26 02:33N 49°11' W 123°43'8 8.2
2015-Aug-26 01:33N 49°18' W 123°50'8 8.1
2015-Aug-26 00:33N 49°25' W 123°54'7 6.9
2015-Aug-25 23:33N 49°32' W 123°58'0 0.1
2015-Aug-25 22:33N 49°32' W 123°58'0 0.0
2015-Aug-25 21:33N 49°32' W 123°58'1 1.1
2015-Aug-25 20:30N 49°32' W 123°60'8 7.5
2015-Aug-25 19:26N 49°38' W 124°09'6 7.4
2015-Aug-25 18:33N 49°41' W 124°17'7 7.4
2015-Aug-25 17:33N 49°46' W 124°26'  
2015-Aug-17 21:03N 49°48' W 124°32'4 7.6
2015-Aug-17 20:30N 49°46' W 124°26'7 7.5
2015-Aug-17 19:33N 49°42' W 124°17'7 7.2
2015-Aug-17 18:32N 49°37' W 124°08'7 7.2
2015-Aug-17 17:33N 49°32' W 124°00'8 7.6
2015-Aug-17 16:34N 49°26' W 123°54'8 7.7
2015-Aug-17 15:32N 49°19' W 123°48'7 7.4
2015-Aug-17 14:32N 49°13' W 123°43'4 3.8
2015-Aug-17 13:33N 49°09' W 123°42'0 0.0
2015-Aug-17 12:12N 49°09' W 123°42'0 0.0
2015-Aug-17 05:27N 49°09' W 123°42'0 0.0
2015-Aug-17 04:30N 49°09' W 123°42'0 0.0
2015-Aug-17 03:30N 49°09' W 123°42'0 0.0
2015-Aug-17 02:30N 49°09' W 123°42'0 0.0
2015-Aug-17 01:30N 49°09' W 123°42'0 0.0
2015-Aug-16 23:33N 49°09' W 123°42'  

Dump ship's entire track history